sensor_id;sensor_type;location;lat;lon;timestamp;temperature;humidity
20174;DHT22;10246;50.620;7.232;2022-12-10T00:00:34;2.30;15.00
20174;DHT22;10246;50.620;7.232;2022-12-10T00:03:01;2.40;15.10
20174;DHT22;10246;50.620;7.232;2022-12-10T00:05:30;2.40;14.80
20174;DHT22;10246;50.620;7.232;2022-12-10T00:07:59;2.40;15.00
20174;DHT22;10246;50.620;7.232;2022-12-10T00:10:26;2.40;15.40
20174;DHT22;10246;50.620;7.232;2022-12-10T00:12:52;2.50;15.40
20174;DHT22;10246;50.620;7.232;2022-12-10T00:15:19;2.50;15.20
20174;DHT22;10246;50.620;7.232;2022-12-10T00:17:46;2.50;14.90
20174;DHT22;10246;50.620;7.232;2022-12-10T00:20:13;2.50;14.20
20174;DHT22;10246;50.620;7.232;2022-12-10T00:22:42;2.50;12.90
20174;DHT22;10246;50.620;7.232;2022-12-10T00:25:08;2.40;12.20
20174;DHT22;10246;50.620;7.232;2022-12-10T00:27:35;2.30;13.50
20174;DHT22;10246;50.620;7.232;2022-12-10T00:30:03;2.30;14.60
20174;DHT22;10246;50.620;7.232;2022-12-10T00:32:29;2.30;15.70
20174;DHT22;10246;50.620;7.232;2022-12-10T00:34:56;2.40;15.10
20174;DHT22;10246;50.620;7.232;2022-12-10T00:37:23;2.40;14.60
20174;DHT22;10246;50.620;7.232;2022-12-10T00:39:51;2.30;14.30
20174;DHT22;10246;50.620;7.232;2022-12-10T00:42:18;2.40;13.80
20174;DHT22;10246;50.620;7.232;2022-12-10T00:44:44;2.30;13.90
20174;DHT22;10246;50.620;7.232;2022-12-10T00:47:11;2.40;14.20
20174;DHT22;10246;50.620;7.232;2022-12-10T00:49:38;2.40;13.30
20174;DHT22;10246;50.620;7.232;2022-12-10T00:52:05;2.30;13.00
20174;DHT22;10246;50.620;7.232;2022-12-10T00:54:31;2.20;13.80
20174;DHT22;10246;50.620;7.232;2022-12-10T00:57:00;2.20;14.50
20174;DHT22;10246;50.620;7.232;2022-12-10T00:59:27;2.20;14.70
20174;DHT22;10246;50.620;7.232;2022-12-10T01:01:53;2.20;14.90
20174;DHT22;10246;50.620;7.232;2022-12-10T01:04:20;2.30;15.20
20174;DHT22;10246;50.620;7.232;2022-12-10T01:06:48;2.20;14.60
20174;DHT22;10246;50.620;7.232;2022-12-10T01:09:17;2.20;14.20
20174;DHT22;10246;50.620;7.232;2022-12-10T01:11:46;2.10;14.30
20174;DHT22;10246;50.620;7.232;2022-12-10T01:14:17;2.10;14.90
20174;DHT22;10246;50.620;7.232;2022-12-10T01:16:45;2.00;14.80
20174;DHT22;10246;50.620;7.232;2022-12-10T01:19:12;2.10;14.90
20174;DHT22;10246;50.620;7.232;2022-12-10T01:21:38;2.10;14.90
20174;DHT22;10246;50.620;7.232;2022-12-10T01:24:06;2.10;14.90
20174;DHT22;10246;50.620;7.232;2022-12-10T01:26:34;2.10;14.90
20174;DHT22;10246;50.620;7.232;2022-12-10T01:29:02;2.10;15.10
20174;DHT22;10246;50.620;7.232;2022-12-10T01:31:33;2.20;15.20
20174;DHT22;10246;50.620;7.232;2022-12-10T01:34:00;2.20;15.30
20174;DHT22;10246;50.620;7.232;2022-12-10T01:36:29;2.10;14.60
20174;DHT22;10246;50.620;7.232;2022-12-10T01:38:57;2.10;14.90
20174;DHT22;10246;50.620;7.232;2022-12-10T01:41:27;2.20;14.90
20174;DHT22;10246;50.620;7.232;2022-12-10T01:43:56;2.20;14.40
20174;DHT22;10246;50.620;7.232;2022-12-10T01:46:25;2.20;14.90
20174;DHT22;10246;50.620;7.232;2022-12-10T01:48:54;2.20;13.70
20174;DHT22;10246;50.620;7.232;2022-12-10T01:51:23;2.10;14.50
20174;DHT22;10246;50.620;7.232;2022-12-10T01:53:50;2.10;14.90
20174;DHT22;10246;50.620;7.232;2022-12-10T01:56:18;2.10;14.90
20174;DHT22;10246;50.620;7.232;2022-12-10T01:58:45;2.10;14.90
20174;DHT22;10246;50.620;7.232;2022-12-10T02:01:16;2.20;15.40
20174;DHT22;10246;50.620;7.232;2022-12-10T02:03:58;2.20;14.50
20174;DHT22;10246;50.620;7.232;2022-12-10T02:06:38;2.30;14.80
20174;DHT22;10246;50.620;7.232;2022-12-10T02:09:17;2.30;13.90
20174;DHT22;10246;50.620;7.232;2022-12-10T02:11:52;2.20;12.90
20174;DHT22;10246;50.620;7.232;2022-12-10T02:14:28;2.20;12.40
20174;DHT22;10246;50.620;7.232;2022-12-10T02:16:58;2.10;12.90
20174;DHT22;10246;50.620;7.232;2022-12-10T02:19:41;2.10;12.90
20174;DHT22;10246;50.620;7.232;2022-12-10T02:22:12;2.10;13.20
20174;DHT22;10246;50.620;7.232;2022-12-10T02:24:40;2.10;13.10
20174;DHT22;10246;50.620;7.232;2022-12-10T02:27:11;2.00;13.20
20174;DHT22;10246;50.620;7.232;2022-12-10T02:29:43;2.00;13.40
20174;DHT22;10246;50.620;7.232;2022-12-10T02:32:15;1.90;13.50
20174;DHT22;10246;50.620;7.232;2022-12-10T02:34:47;1.90;14.30
20174;DHT22;10246;50.620;7.232;2022-12-10T02:37:18;1.90;14.70
20174;DHT22;10246;50.620;7.232;2022-12-10T02:39:48;1.90;15.00
20174;DHT22;10246;50.620;7.232;2022-12-10T02:42:18;1.90;15.80
20174;DHT22;10246;50.620;7.232;2022-12-10T02:44:48;2.00;16.00
20174;DHT22;10246;50.620;7.232;2022-12-10T02:47:16;2.00;15.40
20174;DHT22;10246;50.620;7.232;2022-12-10T02:49:46;2.00;14.50
20174;DHT22;10246;50.620;7.232;2022-12-10T02:52:14;2.00;14.80
20174;DHT22;10246;50.620;7.232;2022-12-10T02:54:42;2.00;14.90
20174;DHT22;10246;50.620;7.232;2022-12-10T02:57:30;2.00;14.90
20174;DHT22;10246;50.620;7.232;2022-12-10T03:00:12;2.10;14.90
20174;DHT22;10246;50.620;7.232;2022-12-10T03:03:04;2.10;13.60
20174;DHT22;10246;50.620;7.232;2022-12-10T03:05:37;2.00;13.20
20174;DHT22;10246;50.620;7.232;2022-12-10T03:08:10;2.00;14.20
20174;DHT22;10246;50.620;7.232;2022-12-10T03:10:47;2.00;14.40
20174;DHT22;10246;50.620;7.232;2022-12-10T03:13:16;2.00;14.10
20174;DHT22;10246;50.620;7.232;2022-12-10T03:15:47;2.00;14.30
20174;DHT22;10246;50.620;7.232;2022-12-10T03:18:16;2.00;14.00
20174;DHT22;10246;50.620;7.232;2022-12-10T03:20:45;2.00;14.60
20174;DHT22;10246;50.620;7.232;2022-12-10T03:23:15;2.00;14.10
20174;DHT22;10246;50.620;7.232;2022-12-10T03:25:43;2.00;14.10
20174;DHT22;10246;50.620;7.232;2022-12-10T03:28:10;1.90;14.40
20174;DHT22;10246;50.620;7.232;2022-12-10T03:30:39;2.00;14.40
20174;DHT22;10246;50.620;7.232;2022-12-10T03:33:08;1.90;14.30
20174;DHT22;10246;50.620;7.232;2022-12-10T03:35:35;1.90;14.80
20174;DHT22;10246;50.620;7.232;2022-12-10T03:38:02;1.90;15.10
20174;DHT22;10246;50.620;7.232;2022-12-10T03:40:30;2.00;15.40
20174;DHT22;10246;50.620;7.232;2022-12-10T03:42:57;2.00;15.20
20174;DHT22;10246;50.620;7.232;2022-12-10T03:45:24;2.00;14.40
20174;DHT22;10246;50.620;7.232;2022-12-10T03:47:51;2.00;14.30
20174;DHT22;10246;50.620;7.232;2022-12-10T03:50:19;2.00;14.90
20174;DHT22;10246;50.620;7.232;2022-12-10T03:52:46;2.00;14.50
20174;DHT22;10246;50.620;7.232;2022-12-10T03:55:13;2.00;14.40
20174;DHT22;10246;50.620;7.232;2022-12-10T03:57:40;2.00;14.30
20174;DHT22;10246;50.620;7.232;2022-12-10T04:00:08;2.00;14.80
20174;DHT22;10246;50.620;7.232;2022-12-10T04:02:35;2.10;14.30
20174;DHT22;10246;50.620;7.232;2022-12-10T04:05:02;2.10;13.60
20174;DHT22;10246;50.620;7.232;2022-12-10T04:07:31;2.00;13.40
20174;DHT22;10246;50.620;7.232;2022-12-10T04:09:57;2.00;13.00
20174;DHT22;10246;50.620;7.232;2022-12-10T04:12:24;2.00;13.40
20174;DHT22;10246;50.620;7.232;2022-12-10T04:14:51;1.90;13.50
20174;DHT22;10246;50.620;7.232;2022-12-10T04:17:35;1.90;13.50
20174;DHT22;10246;50.620;7.232;2022-12-10T04:20:02;1.90;14.00
20174;DHT22;10246;50.620;7.232;2022-12-10T04:22:31;1.90;13.80
20174;DHT22;10246;50.620;7.232;2022-12-10T04:25:15;1.90;13.70
20174;DHT22;10246;50.620;7.232;2022-12-10T04:27:59;1.90;13.90
20174;DHT22;10246;50.620;7.232;2022-12-10T04:30:25;1.90;14.70
20174;DHT22;10246;50.620;7.232;2022-12-10T04:32:53;1.90;14.80
20174;DHT22;10246;50.620;7.232;2022-12-10T04:35:19;1.90;14.80
20174;DHT22;10246;50.620;7.232;2022-12-10T04:37:48;2.00;14.10
20174;DHT22;10246;50.620;7.232;2022-12-10T04:40:14;1.90;14.40
20174;DHT22;10246;50.620;7.232;2022-12-10T04:42:41;1.90;14.20
20174;DHT22;10246;50.620;7.232;2022-12-10T04:45:09;2.00;14.20
20174;DHT22;10246;50.620;7.232;2022-12-10T04:47:36;2.00;13.50
20174;DHT22;10246;50.620;7.232;2022-12-10T04:50:03;2.00;13.70
20174;DHT22;10246;50.620;7.232;2022-12-10T04:52:30;1.90;13.30
20174;DHT22;10246;50.620;7.232;2022-12-10T04:54:58;1.90;14.10
20174;DHT22;10246;50.620;7.232;2022-12-10T04:57:24;1.90;14.80
20174;DHT22;10246;50.620;7.232;2022-12-10T04:59:51;1.90;14.80
20174;DHT22;10246;50.620;7.232;2022-12-10T05:02:18;1.90;14.50
20174;DHT22;10246;50.620;7.232;2022-12-10T05:04:45;1.90;15.40
20174;DHT22;10246;50.620;7.232;2022-12-10T05:07:12;1.90;14.50
20174;DHT22;10246;50.620;7.232;2022-12-10T05:09:38;1.90;14.80
20174;DHT22;10246;50.620;7.232;2022-12-10T05:12:07;2.00;14.80
20174;DHT22;10246;50.620;7.232;2022-12-10T05:14:33;1.90;14.30
20174;DHT22;10246;50.620;7.232;2022-12-10T05:17:00;1.90;14.60
20174;DHT22;10246;50.620;7.232;2022-12-10T05:19:27;1.90;14.40
20174;DHT22;10246;50.620;7.232;2022-12-10T05:21:54;1.90;14.80
20174;DHT22;10246;50.620;7.232;2022-12-10T05:24:38;1.90;14.60
20174;DHT22;10246;50.620;7.232;2022-12-10T05:27:06;2.00;13.50
20174;DHT22;10246;50.620;7.232;2022-12-10T05:29:33;1.90;13.50
20174;DHT22;10246;50.620;7.232;2022-12-10T05:32:00;1.90;14.40
20174;DHT22;10246;50.620;7.232;2022-12-10T05:34:27;1.90;14.80
20174;DHT22;10246;50.620;7.232;2022-12-10T05:36:54;1.90;14.80
20174;DHT22;10246;50.620;7.232;2022-12-10T05:39:20;2.00;15.00
20174;DHT22;10246;50.620;7.232;2022-12-10T05:41:48;2.00;15.30
20174;DHT22;10246;50.620;7.232;2022-12-10T05:44:16;2.00;14.20
20174;DHT22;10246;50.620;7.232;2022-12-10T05:46:43;2.00;14.30
20174;DHT22;10246;50.620;7.232;2022-12-10T05:49:11;2.00;13.60
20174;DHT22;10246;50.620;7.232;2022-12-10T05:51:38;1.90;14.00
20174;DHT22;10246;50.620;7.232;2022-12-10T05:54:07;1.90;13.50
20174;DHT22;10246;50.620;7.232;2022-12-10T05:56:35;1.90;14.20
20174;DHT22;10246;50.620;7.232;2022-12-10T05:59:03;1.90;14.20
20174;DHT22;10246;50.620;7.232;2022-12-10T06:01:33;2.00;13.60
20174;DHT22;10246;50.620;7.232;2022-12-10T06:04:02;2.00;12.60
20174;DHT22;10246;50.620;7.232;2022-12-10T06:06:32;1.90;12.80
20174;DHT22;10246;50.620;7.232;2022-12-10T06:08:59;1.90;13.10
20174;DHT22;10246;50.620;7.232;2022-12-10T06:11:26;1.90;13.70
20174;DHT22;10246;50.620;7.232;2022-12-10T06:13:53;1.90;13.60
20174;DHT22;10246;50.620;7.232;2022-12-10T06:16:21;1.90;14.10
20174;DHT22;10246;50.620;7.232;2022-12-10T06:18:49;1.90;14.10
20174;DHT22;10246;50.620;7.232;2022-12-10T06:21:16;2.00;13.70
20174;DHT22;10246;50.620;7.232;2022-12-10T06:23:44;2.00;13.30
20174;DHT22;10246;50.620;7.232;2022-12-10T06:26:13;2.00;13.30
20174;DHT22;10246;50.620;7.232;2022-12-10T06:28:40;1.90;13.50
20174;DHT22;10246;50.620;7.232;2022-12-10T06:31:07;2.00;13.50
20174;DHT22;10246;50.620;7.232;2022-12-10T06:33:33;2.00;13.00
20174;DHT22;10246;50.620;7.232;2022-12-10T06:36:04;2.00;12.70
20174;DHT22;10246;50.620;7.232;2022-12-10T06:38:31;2.00;12.80
20174;DHT22;10246;50.620;7.232;2022-12-10T06:40:58;1.90;12.90
20174;DHT22;10246;50.620;7.232;2022-12-10T06:43:27;1.90;13.40
20174;DHT22;10246;50.620;7.232;2022-12-10T06:45:54;1.90;13.50
20174;DHT22;10246;50.620;7.232;2022-12-10T06:48:22;1.90;13.10
20174;DHT22;10246;50.620;7.232;2022-12-10T06:50:49;1.90;13.00
20174;DHT22;10246;50.620;7.232;2022-12-10T06:53:17;1.90;13.70
20174;DHT22;10246;50.620;7.232;2022-12-10T06:55:44;1.90;13.40
20174;DHT22;10246;50.620;7.232;2022-12-10T06:58:11;1.80;13.50
20174;DHT22;10246;50.620;7.232;2022-12-10T07:00:38;1.80;13.40
20174;DHT22;10246;50.620;7.232;2022-12-10T07:03:06;1.80;13.70
20174;DHT22;10246;50.620;7.232;2022-12-10T07:05:32;1.90;13.60
20174;DHT22;10246;50.620;7.232;2022-12-10T07:07:59;1.80;12.90
20174;DHT22;10246;50.620;7.232;2022-12-10T07:10:27;1.80;13.10
20174;DHT22;10246;50.620;7.232;2022-12-10T07:12:54;1.80;13.00
20174;DHT22;10246;50.620;7.232;2022-12-10T07:15:20;1.90;13.50
20174;DHT22;10246;50.620;7.232;2022-12-10T07:17:50;1.80;13.10
20174;DHT22;10246;50.620;7.232;2022-12-10T07:20:16;1.90;13.00
20174;DHT22;10246;50.620;7.232;2022-12-10T07:22:43;1.90;12.80
20174;DHT22;10246;50.620;7.232;2022-12-10T07:25:10;1.90;13.30
20174;DHT22;10246;50.620;7.232;2022-12-10T07:27:38;1.90;13.20
20174;DHT22;10246;50.620;7.232;2022-12-10T07:30:06;1.90;13.40
20174;DHT22;10246;50.620;7.232;2022-12-10T07:32:33;1.90;13.10
20174;DHT22;10246;50.620;7.232;2022-12-10T07:34:59;1.90;12.80
20174;DHT22;10246;50.620;7.232;2022-12-10T07:37:26;1.90;12.60
20174;DHT22;10246;50.620;7.232;2022-12-10T07:39:53;1.90;12.60
20174;DHT22;10246;50.620;7.232;2022-12-10T07:42:20;1.90;13.40
20174;DHT22;10246;50.620;7.232;2022-12-10T07:44:49;1.90;13.30
20174;DHT22;10246;50.620;7.232;2022-12-10T07:47:16;1.90;13.20
20174;DHT22;10246;50.620;7.232;2022-12-10T07:49:43;1.90;12.90
20174;DHT22;10246;50.620;7.232;2022-12-10T07:52:10;2.00;13.30
20174;DHT22;10246;50.620;7.232;2022-12-10T07:54:36;2.00;12.50
20174;DHT22;10246;50.620;7.232;2022-12-10T07:57:03;2.00;12.80
20174;DHT22;10246;50.620;7.232;2022-12-10T07:59:30;2.00;13.20
20174;DHT22;10246;50.620;7.232;2022-12-10T08:01:58;2.10;13.00
20174;DHT22;10246;50.620;7.232;2022-12-10T08:04:27;2.10;12.40
20174;DHT22;10246;50.620;7.232;2022-12-10T08:06:55;2.10;12.30
20174;DHT22;10246;50.620;7.232;2022-12-10T08:09:22;2.20;12.60
20174;DHT22;10246;50.620;7.232;2022-12-10T08:11:48;2.20;11.40
20174;DHT22;10246;50.620;7.232;2022-12-10T08:14:15;2.20;10.50
20174;DHT22;10246;50.620;7.232;2022-12-10T08:16:42;2.10;10.00
20174;DHT22;10246;50.620;7.232;2022-12-10T08:19:10;2.20;9.70
20174;DHT22;10246;50.620;7.232;2022-12-10T08:21:37;2.20;9.60
20174;DHT22;10246;50.620;7.232;2022-12-10T08:24:04;2.10;9.50
20174;DHT22;10246;50.620;7.232;2022-12-10T08:26:32;2.00;10.00
20174;DHT22;10246;50.620;7.232;2022-12-10T08:28:59;2.00;10.60
20174;DHT22;10246;50.620;7.232;2022-12-10T08:31:27;2.00;10.30
20174;DHT22;10246;50.620;7.232;2022-12-10T08:33:54;2.10;9.20
20174;DHT22;10246;50.620;7.232;2022-12-10T08:36:22;2.10;8.80
20174;DHT22;10246;50.620;7.232;2022-12-10T08:38:49;2.00;8.90
20174;DHT22;10246;50.620;7.232;2022-12-10T08:41:18;2.00;8.30
20174;DHT22;10246;50.620;7.232;2022-12-10T08:43:45;2.00;8.70
20174;DHT22;10246;50.620;7.232;2022-12-10T08:46:13;2.00;10.00
20174;DHT22;10246;50.620;7.232;2022-12-10T08:48:41;2.00;9.70
20174;DHT22;10246;50.620;7.232;2022-12-10T08:51:10;2.00;8.20
20174;DHT22;10246;50.620;7.232;2022-12-10T08:53:38;2.10;4.70
20174;DHT22;10246;50.620;7.232;2022-12-10T08:56:05;2.10;5.10
20174;DHT22;10246;50.620;7.232;2022-12-10T08:58:32;2.20;6.50
20174;DHT22;10246;50.620;7.232;2022-12-10T09:00:59;2.20;6.50
20174;DHT22;10246;50.620;7.232;2022-12-10T09:03:27;2.20;5.80
20174;DHT22;10246;50.620;7.232;2022-12-10T09:05:54;2.20;5.90
20174;DHT22;10246;50.620;7.232;2022-12-10T09:08:20;2.20;5.40
20174;DHT22;10246;50.620;7.232;2022-12-10T09:10:49;2.20;4.60
20174;DHT22;10246;50.620;7.232;2022-12-10T09:13:16;2.10;4.80
20174;DHT22;10246;50.620;7.232;2022-12-10T09:15:49;2.10;4.20
20174;DHT22;10246;50.620;7.232;2022-12-10T09:18:17;2.10;4.00
20174;DHT22;10246;50.620;7.232;2022-12-10T09:20:44;2.20;2.00
20174;DHT22;10246;50.620;7.232;2022-12-10T09:23:11;2.10;1.00
20174;DHT22;10246;50.620;7.232;2022-12-10T09:25:38;2.10;1.10
20174;DHT22;10246;50.620;7.232;2022-12-10T09:28:06;2.20;1.00
20174;DHT22;10246;50.620;7.232;2022-12-10T09:30:33;2.20;1.30
20174;DHT22;10246;50.620;7.232;2022-12-10T09:33:00;2.20;1.00
20174;DHT22;10246;50.620;7.232;2022-12-10T09:35:27;2.20;1.00
20174;DHT22;10246;50.620;7.232;2022-12-10T09:37:54;2.20;1.00
20174;DHT22;10246;50.620;7.232;2022-12-10T09:40:28;2.30;1.00
20174;DHT22;10246;50.620;7.232;2022-12-10T09:42:59;2.30;1.00
20174;DHT22;10246;50.620;7.232;2022-12-10T09:45:38;2.30;1.00
20174;DHT22;10246;50.620;7.232;2022-12-10T09:48:16;2.30;1.00
20174;DHT22;10246;50.620;7.232;2022-12-10T09:50:50;2.30;1.00
20174;DHT22;10246;50.620;7.232;2022-12-10T09:53:21;2.20;1.00
20174;DHT22;10246;50.620;7.232;2022-12-10T09:55:49;2.20;1.00
20174;DHT22;10246;50.620;7.232;2022-12-10T09:58:18;2.30;1.00
20174;DHT22;10246;50.620;7.232;2022-12-10T10:00:48;2.30;1.00
20174;DHT22;10246;50.620;7.232;2022-12-10T10:03:16;2.40;1.00
20174;DHT22;10246;50.620;7.232;2022-12-10T10:05:46;2.40;1.00
20174;DHT22;10246;50.620;7.232;2022-12-10T10:08:21;2.30;1.00
20174;DHT22;10246;50.620;7.232;2022-12-10T10:10:50;2.30;1.00
20174;DHT22;10246;50.620;7.232;2022-12-10T10:13:25;2.40;1.00
20174;DHT22;10246;50.620;7.232;2022-12-10T10:15:54;2.40;1.00
20174;DHT22;10246;50.620;7.232;2022-12-10T10:18:26;2.40;1.00
20174;DHT22;10246;50.620;7.232;2022-12-10T10:20:56;2.50;1.00
20174;DHT22;10246;50.620;7.232;2022-12-10T10:23:23;2.40;1.00
20174;DHT22;10246;50.620;7.232;2022-12-10T10:25:50;2.40;1.00
20174;DHT22;10246;50.620;7.232;2022-12-10T10:28:19;2.40;1.00
20174;DHT22;10246;50.620;7.232;2022-12-10T10:30:46;2.40;1.00
20174;DHT22;10246;50.620;7.232;2022-12-10T10:33:15;2.50;1.00
20174;DHT22;10246;50.620;7.232;2022-12-10T10:35:44;2.50;1.00
20174;DHT22;10246;50.620;7.232;2022-12-10T10:38:18;2.40;1.00
20174;DHT22;10246;50.620;7.232;2022-12-10T10:40:49;2.40;1.00
20174;DHT22;10246;50.620;7.232;2022-12-10T10:43:20;2.40;1.00
20174;DHT22;10246;50.620;7.232;2022-12-10T10:45:49;2.40;1.00
20174;DHT22;10246;50.620;7.232;2022-12-10T10:48:20;2.40;1.00
20174;DHT22;10246;50.620;7.232;2022-12-10T10:50:49;2.50;1.00
20174;DHT22;10246;50.620;7.232;2022-12-10T10:53:25;2.50;1.00
20174;DHT22;10246;50.620;7.232;2022-12-10T10:55:54;2.60;1.00
20174;DHT22;10246;50.620;7.232;2022-12-10T10:58:23;2.60;1.00
20174;DHT22;10246;50.620;7.232;2022-12-10T11:00:57;2.60;1.00
20174;DHT22;10246;50.620;7.232;2022-12-10T11:03:30;2.60;1.00
20174;DHT22;10246;50.620;7.232;2022-12-10T11:05:59;2.60;1.00
20174;DHT22;10246;50.620;7.232;2022-12-10T11:08:29;2.50;1.00
20174;DHT22;10246;50.620;7.232;2022-12-10T11:11:01;2.50;1.00
20174;DHT22;10246;50.620;7.232;2022-12-10T11:13:30;2.50;1.00
20174;DHT22;10246;50.620;7.232;2022-12-10T11:16:01;2.50;1.00
20174;DHT22;10246;50.620;7.232;2022-12-10T11:18:35;2.50;1.00
20174;DHT22;10246;50.620;7.232;2022-12-10T11:21:05;2.60;1.00
20174;DHT22;10246;50.620;7.232;2022-12-10T11:23:37;2.60;1.00
20174;DHT22;10246;50.620;7.232;2022-12-10T11:26:21;2.60;1.00
20174;DHT22;10246;50.620;7.232;2022-12-10T11:29:02;2.60;1.00
20174;DHT22;10246;50.620;7.232;2022-12-10T11:31:44;2.60;1.00
20174;DHT22;10246;50.620;7.232;2022-12-10T11:34:18;2.50;1.00
20174;DHT22;10246;50.620;7.232;2022-12-10T11:36:56;2.50;1.00
20174;DHT22;10246;50.620;7.232;2022-12-10T11:39:43;2.50;1.00
20174;DHT22;10246;50.620;7.232;2022-12-10T11:42:22;2.50;1.00
20174;DHT22;10246;50.620;7.232;2022-12-10T11:44:57;2.50;1.00
20174;DHT22;10246;50.620;7.232;2022-12-10T11:47:33;2.60;1.00
20174;DHT22;10246;50.620;7.232;2022-12-10T11:50:14;2.60;1.00
20174;DHT22;10246;50.620;7.232;2022-12-10T11:53:00;2.60;1.00
20174;DHT22;10246;50.620;7.232;2022-12-10T11:55:36;2.60;1.00
20174;DHT22;10246;50.620;7.232;2022-12-10T11:58:22;2.60;1.00
20174;DHT22;10246;50.620;7.232;2022-12-10T12:01:01;2.60;1.00
20174;DHT22;10246;50.620;7.232;2022-12-10T12:03:59;2.60;1.00
20174;DHT22;10246;50.620;7.232;2022-12-10T12:06:44;2.70;1.00
20174;DHT22;10246;50.620;7.232;2022-12-10T12:09:22;2.60;1.00
20174;DHT22;10246;50.620;7.232;2022-12-10T12:12:10;2.70;1.00
20174;DHT22;10246;50.620;7.232;2022-12-10T12:14:43;2.80;1.00
20174;DHT22;10246;50.620;7.232;2022-12-10T12:17:18;2.70;1.00
20174;DHT22;10246;50.620;7.232;2022-12-10T12:19:49;2.60;1.00
20174;DHT22;10246;50.620;7.232;2022-12-10T12:22:23;2.60;1.00
20174;DHT22;10246;50.620;7.232;2022-12-10T12:24:54;2.60;1.00
20174;DHT22;10246;50.620;7.232;2022-12-10T12:27:26;2.70;1.00
20174;DHT22;10246;50.620;7.232;2022-12-10T12:30:06;2.60;1.00
20174;DHT22;10246;50.620;7.232;2022-12-10T12:32:40;2.60;1.00
20174;DHT22;10246;50.620;7.232;2022-12-10T12:35:12;2.50;1.00
20174;DHT22;10246;50.620;7.232;2022-12-10T12:37:46;2.50;1.00
20174;DHT22;10246;50.620;7.232;2022-12-10T12:40:16;2.60;1.00
20174;DHT22;10246;50.620;7.232;2022-12-10T12:42:54;2.60;1.00
20174;DHT22;10246;50.620;7.232;2022-12-10T12:45:28;2.60;1.00
20174;DHT22;10246;50.620;7.232;2022-12-10T12:48:01;2.60;1.00
20174;DHT22;10246;50.620;7.232;2022-12-10T12:50:37;2.60;1.00
20174;DHT22;10246;50.620;7.232;2022-12-10T12:53:12;2.70;1.00
20174;DHT22;10246;50.620;7.232;2022-12-10T12:55:45;2.60;1.00
20174;DHT22;10246;50.620;7.232;2022-12-10T12:58:23;2.70;1.00
20174;DHT22;10246;50.620;7.232;2022-12-10T13:00:55;2.60;1.00
20174;DHT22;10246;50.620;7.232;2022-12-10T13:03:33;2.60;1.00
20174;DHT22;10246;50.620;7.232;2022-12-10T13:06:23;2.60;1.00
20174;DHT22;10246;50.620;7.232;2022-12-10T13:08:57;2.60;1.00
20174;DHT22;10246;50.620;7.232;2022-12-10T13:11:33;2.60;1.00
20174;DHT22;10246;50.620;7.232;2022-12-10T13:14:29;2.60;1.00
20174;DHT22;10246;50.620;7.232;2022-12-10T13:17:25;2.50;1.00
20174;DHT22;10246;50.620;7.232;2022-12-10T13:19:53;2.50;1.00
20174;DHT22;10246;50.620;7.232;2022-12-10T13:22:42;2.50;1.00
20174;DHT22;10246;50.620;7.232;2022-12-10T13:25:13;2.50;1.00
20174;DHT22;10246;50.620;7.232;2022-12-10T13:27:41;2.60;1.00
20174;DHT22;10246;50.620;7.232;2022-12-10T13:30:33;2.50;1.00
20174;DHT22;10246;50.620;7.232;2022-12-10T13:33:15;2.60;1.00
20174;DHT22;10246;50.620;7.232;2022-12-10T13:35:55;2.50;1.00
20174;DHT22;10246;50.620;7.232;2022-12-10T13:38:24;2.50;1.00
20174;DHT22;10246;50.620;7.232;2022-12-10T13:41:05;2.60;1.00
20174;DHT22;10246;50.620;7.232;2022-12-10T13:43:57;2.60;1.00
20174;DHT22;10246;50.620;7.232;2022-12-10T13:47:21;2.60;1.00
20174;DHT22;10246;50.620;7.232;2022-12-10T13:49:53;2.60;1.00
20174;DHT22;10246;50.620;7.232;2022-12-10T13:52:25;2.70;1.00
20174;DHT22;10246;50.620;7.232;2022-12-10T13:55:19;2.60;1.00
20174;DHT22;10246;50.620;7.232;2022-12-10T13:58:00;2.50;1.00
20174;DHT22;10246;50.620;7.232;2022-12-10T14:00:37;2.50;1.00
20174;DHT22;10246;50.620;7.232;2022-12-10T14:03:30;2.50;1.00
20174;DHT22;10246;50.620;7.232;2022-12-10T14:06:11;2.50;1.00
20174;DHT22;10246;50.620;7.232;2022-12-10T14:08:40;2.40;1.00
20174;DHT22;10246;50.620;7.232;2022-12-10T14:11:13;2.50;1.00
20174;DHT22;10246;50.620;7.232;2022-12-10T14:13:47;2.50;1.00
20174;DHT22;10246;50.620;7.232;2022-12-10T14:16:20;2.40;1.00
20174;DHT22;10246;50.620;7.232;2022-12-10T14:18:52;2.50;1.00
20174;DHT22;10246;50.620;7.232;2022-12-10T14:21:19;2.50;1.00
20174;DHT22;10246;50.620;7.232;2022-12-10T14:23:48;2.40;1.00
20174;DHT22;10246;50.620;7.232;2022-12-10T14:26:17;2.50;1.00
20174;DHT22;10246;50.620;7.232;2022-12-10T14:28:48;2.50;1.00
20174;DHT22;10246;50.620;7.232;2022-12-10T14:31:18;2.50;1.00
20174;DHT22;10246;50.620;7.232;2022-12-10T14:33:48;2.40;1.00
20174;DHT22;10246;50.620;7.232;2022-12-10T14:36:20;2.30;1.00
20174;DHT22;10246;50.620;7.232;2022-12-10T14:38:50;2.30;1.00
20174;DHT22;10246;50.620;7.232;2022-12-10T14:41:20;2.30;1.00
20174;DHT22;10246;50.620;7.232;2022-12-10T14:43:49;2.40;1.00
20174;DHT22;10246;50.620;7.232;2022-12-10T14:46:18;2.30;1.00
20174;DHT22;10246;50.620;7.232;2022-12-10T14:48:49;2.30;1.00
20174;DHT22;10246;50.620;7.232;2022-12-10T14:51:20;2.30;1.00
20174;DHT22;10246;50.620;7.232;2022-12-10T14:53:48;2.30;1.00
20174;DHT22;10246;50.620;7.232;2022-12-10T14:56:20;2.30;1.00
20174;DHT22;10246;50.620;7.232;2022-12-10T14:58:55;2.30;1.00
20174;DHT22;10246;50.620;7.232;2022-12-10T15:01:28;2.30;1.00
20174;DHT22;10246;50.620;7.232;2022-12-10T15:03:57;2.30;1.00
20174;DHT22;10246;50.620;7.232;2022-12-10T15:06:25;2.30;1.00
20174;DHT22;10246;50.620;7.232;2022-12-10T15:08:55;2.30;1.00
20174;DHT22;10246;50.620;7.232;2022-12-10T15:11:25;2.30;1.00
20174;DHT22;10246;50.620;7.232;2022-12-10T15:13:57;2.30;1.00
20174;DHT22;10246;50.620;7.232;2022-12-10T15:16:30;2.20;1.00
20174;DHT22;10246;50.620;7.232;2022-12-10T15:19:08;2.20;1.00
20174;DHT22;10246;50.620;7.232;2022-12-10T15:21:41;2.20;1.00
20174;DHT22;10246;50.620;7.232;2022-12-10T15:24:16;2.20;1.00
20174;DHT22;10246;50.620;7.232;2022-12-10T15:26:44;2.20;1.00
20174;DHT22;10246;50.620;7.232;2022-12-10T15:29:30;2.20;1.00
20174;DHT22;10246;50.620;7.232;2022-12-10T15:32:01;2.20;1.00
20174;DHT22;10246;50.620;7.232;2022-12-10T15:34:29;2.30;1.00
20174;DHT22;10246;50.620;7.232;2022-12-10T15:37:01;2.30;1.00
20174;DHT22;10246;50.620;7.232;2022-12-10T15:39:30;2.30;1.00
20174;DHT22;10246;50.620;7.232;2022-12-10T15:42:01;2.30;1.00
20174;DHT22;10246;50.620;7.232;2022-12-10T15:44:36;2.10;1.00
20174;DHT22;10246;50.620;7.232;2022-12-10T15:47:11;2.10;1.00
20174;DHT22;10246;50.620;7.232;2022-12-10T15:49:39;2.10;1.00
20174;DHT22;10246;50.620;7.232;2022-12-10T15:52:06;2.10;1.00
20174;DHT22;10246;50.620;7.232;2022-12-10T15:54:37;2.10;1.00
20174;DHT22;10246;50.620;7.232;2022-12-10T15:57:12;2.00;1.00
20174;DHT22;10246;50.620;7.232;2022-12-10T15:59:41;2.00;1.00
20174;DHT22;10246;50.620;7.232;2022-12-10T16:02:25;2.00;1.00
20174;DHT22;10246;50.620;7.232;2022-12-10T16:04:53;2.00;1.00
20174;DHT22;10246;50.620;7.232;2022-12-10T16:07:20;2.00;1.00
20174;DHT22;10246;50.620;7.232;2022-12-10T16:09:47;1.90;1.00
20174;DHT22;10246;50.620;7.232;2022-12-10T16:12:15;1.90;1.50
20174;DHT22;10246;50.620;7.232;2022-12-10T16:14:48;1.80;1.70